createdAt,value
2022-11-09T00:02:26.537Z,61.05
2022-11-09T00:05:29.085Z,59.43
2022-11-09T00:08:33.151Z,60.25
2022-11-09T00:11:36.087Z,59.76
2022-11-09T00:14:38.828Z,60.47
2022-11-09T00:17:41.571Z,59.84
2022-11-09T00:23:52.165Z,60.66
2022-11-09T00:26:54.949Z,60.49
2022-11-09T00:29:57.482Z,59.71
2022-11-09T00:33:00.331Z,60.25
2022-11-09T00:36:07.581Z,60.13
2022-11-09T00:39:11.613Z,59.58
2022-11-09T00:42:14.313Z,59.66
2022-11-09T00:45:17.116Z,60.24
2022-11-09T00:48:19.823Z,59.34
2022-11-09T00:51:22.451Z,59.81
2022-11-09T00:54:26.558Z,60.13
2022-11-09T00:57:29.354Z,60.42
2022-11-09T01:00:31.935Z,59.89
2022-11-09T01:03:34.794Z,60.27
2022-11-09T01:06:37.453Z,60.48
2022-11-09T01:09:41.468Z,60.36
2022-11-09T01:12:44.170Z,60.91
2022-11-09T01:15:49.212Z,60.80
2022-11-09T01:18:54.291Z,61.08
2022-11-09T01:21:56.841Z,61.21
2022-11-09T01:25:00.994Z,61.49
2022-11-09T01:28:04.627Z,61.78
2022-11-09T01:31:08.657Z,61.74
2022-11-09T01:34:14.571Z,61.75
2022-11-09T01:37:17.131Z,61.81
2022-11-09T01:40:21.190Z,61.45
2022-11-09T01:43:25.366Z,61.07
2022-11-09T01:46:35.514Z,61.66
2022-11-09T01:49:42.121Z,61.71
2022-11-09T01:52:48.307Z,62.22
2022-11-09T01:55:56.410Z,60.63
2022-11-09T01:59:02.688Z,60.31
2022-11-09T02:02:06.135Z,60.32
2022-11-09T02:05:13.813Z,61.63
2022-11-09T02:08:19.690Z,61.89
2022-11-09T02:11:25.329Z,61.34
2022-11-09T02:14:30.737Z,61.50
2022-11-09T02:17:35.150Z,60.67
2022-11-09T02:20:48.400Z,62.04
2022-11-09T02:23:51.738Z,62.01
2022-11-09T02:26:55.782Z,62.09
2022-11-09T02:30:00.247Z,62.14
2022-11-09T02:33:02.822Z,62.17
2022-11-09T02:36:07.277Z,63.39
2022-11-09T02:39:11.139Z,62.56
2022-11-09T02:42:21.261Z,62.38
2022-11-09T02:45:24.478Z,62.37
2022-11-09T02:48:27.287Z,61.86
2022-11-09T02:51:31.678Z,63.00
2022-11-09T02:54:34.293Z,62.80
2022-11-09T02:57:37.045Z,62.07
2022-11-09T03:00:39.742Z,62.55
2022-11-09T03:03:42.438Z,62.62
2022-11-09T03:06:46.532Z,62.36
2022-11-09T03:09:49.103Z,60.87
2022-11-09T03:12:51.825Z,62.20
2022-11-09T03:15:54.622Z,62.13
2022-11-09T03:18:58.093Z,62.11
2022-11-09T03:22:02.201Z,61.48
2022-11-09T03:25:05.328Z,61.74
2022-11-09T03:28:09.085Z,61.27
2022-11-09T03:31:11.967Z,60.95
2022-11-09T03:34:14.770Z,60.95
2022-11-09T03:37:19.375Z,60.69
2022-11-09T03:40:22.402Z,60.52
2022-11-09T03:43:25.099Z,61.30
2022-11-09T03:46:28.078Z,61.03
2022-11-09T03:49:30.736Z,60.84
2022-11-09T03:52:35.085Z,60.82
2022-11-09T03:55:38.310Z,60.51
2022-11-09T03:58:41.043Z,61.41
2022-11-09T04:01:43.809Z,61.10
2022-11-09T04:04:46.478Z,62.10
2022-11-09T04:07:52.302Z,63.63
2022-11-09T04:10:55.505Z,64.01
2022-11-09T04:13:58.236Z,64.13
2022-11-09T04:17:00.913Z,64.67
2022-11-09T04:20:03.652Z,65.61
2022-11-09T04:23:10.955Z,65.81
2022-11-09T04:26:13.491Z,66.67
2022-11-09T04:29:16.194Z,68.28
2022-11-09T04:32:18.986Z,68.16
2022-11-09T04:35:21.560Z,69.16
2022-11-09T04:38:25.513Z,69.35
2022-11-09T04:41:28.825Z,66.85
2022-11-09T04:44:31.380Z,69.07
2022-11-09T04:47:33.935Z,69.35
2022-11-09T04:50:36.765Z,69.37
2022-11-09T04:53:41.415Z,69.63
2022-11-09T04:56:44.029Z,69.15
2022-11-09T04:59:46.774Z,66.90
2022-11-09T05:02:49.329Z,67.69
2022-11-09T05:05:51.990Z,68.54
2022-11-09T05:08:57.078Z,66.99
2022-11-09T05:11:59.649Z,66.89
2022-11-09T05:15:02.343Z,66.95
2022-11-09T05:18:06.236Z,67.13
2022-11-09T05:21:08.797Z,66.88
2022-11-09T05:24:13.063Z,65.88
2022-11-09T05:27:17.321Z,65.48
2022-11-09T05:30:20.320Z,64.78
2022-11-09T05:33:23.365Z,64.69
2022-11-09T05:36:27.761Z,64.93
2022-11-09T05:39:31.762Z,65.05
2022-11-09T05:42:34.330Z,65.39
2022-11-09T05:45:42.733Z,65.47
2022-11-09T05:48:46.624Z,64.71
2022-11-09T05:51:49.172Z,65.00
2022-11-09T05:54:53.079Z,64.47
2022-11-09T05:57:55.785Z,64.62
2022-11-09T06:00:59.899Z,64.37
2022-11-09T06:04:02.623Z,64.28
2022-11-09T06:07:05.295Z,65.19
2022-11-09T06:10:10.596Z,64.03
2022-11-09T06:13:13.157Z,64.39
2022-11-09T06:16:15.908Z,63.74
2022-11-09T06:19:18.490Z,64.07
2022-11-09T06:22:21.060Z,63.96
2022-11-09T06:25:25.873Z,63.69
2022-11-09T06:28:28.912Z,63.71
2022-11-09T06:31:31.658Z,62.96
2022-11-09T06:34:34.395Z,63.88
2022-11-09T06:37:37.196Z,63.97
2022-11-09T06:40:41.230Z,64.41
2022-11-09T06:43:44.019Z,64.42
2022-11-09T06:46:46.611Z,65.72
2022-11-09T06:49:49.342Z,65.62
2022-11-09T06:52:51.921Z,66.82
2022-11-09T06:55:58.762Z,67.07
2022-11-09T06:59:01.343Z,67.34
2022-11-09T07:02:04.069Z,69.05
2022-11-09T07:05:07.282Z,69.08
2022-11-09T07:08:10.498Z,69.06
2022-11-09T07:11:17.018Z,69.42
2022-11-09T07:14:19.632Z,70.36
2022-11-09T07:17:22.334Z,71.04
2022-11-09T07:20:25.103Z,72.63
2022-11-09T07:23:27.737Z,73.18
2022-11-09T07:26:31.770Z,73.81
2022-11-09T07:29:34.364Z,74.04
2022-11-09T07:33:07.342Z,74.68
2022-11-09T07:36:02.074Z,73.54
2022-11-09T07:39:09.643Z,76.37
2022-11-09T07:42:13.684Z,75.30
2022-11-09T07:45:16.362Z,76.66
2022-11-09T07:48:19.103Z,76.58
2022-11-09T07:51:21.812Z,75.58
2022-11-09T07:54:25.759Z,74.35
2022-11-09T07:57:29.796Z,75.49
2022-11-09T08:00:34.602Z,75.04
2022-11-09T08:03:37.739Z,74.05
2022-11-09T08:06:40.351Z,74.20
2022-11-09T08:09:43.479Z,74.18
2022-11-09T08:12:54.573Z,74.03
2022-11-09T08:15:57.172Z,72.80
2022-11-09T08:18:59.863Z,73.63
2022-11-09T08:22:02.588Z,72.89
2022-11-09T08:25:05.766Z,74.13
2022-11-09T08:28:14.470Z,74.38
2022-11-09T08:31:17.685Z,72.94
2022-11-09T08:34:20.402Z,72.40
2022-11-09T08:37:22.996Z,73.67
2022-11-09T08:40:26.930Z,72.64
2022-11-09T08:43:30.893Z,73.35
2022-11-09T08:46:38.372Z,74.04
2022-11-09T08:49:44.575Z,73.52
2022-11-09T08:52:47.146Z,73.29
2022-11-09T08:55:49.836Z,72.31
2022-11-09T08:58:53.922Z,72.86
2022-11-09T09:01:56.668Z,71.74
2022-11-09T09:04:59.291Z,73.21
2022-11-09T09:08:02.753Z,72.49
2022-11-09T09:11:06.208Z,73.52
2022-11-09T09:14:10.303Z,72.99
2022-11-09T09:17:13.057Z,72.42
2022-11-09T09:20:16.281Z,72.29
2022-11-09T09:23:19.013Z,72.25
2022-11-09T09:26:22.321Z,71.14
2022-11-09T09:29:26.418Z,71.93
2022-11-09T09:32:30.069Z,71.25
2022-11-09T09:35:32.859Z,70.67
2022-11-09T09:38:35.539Z,70.89
2022-11-09T09:41:41.691Z,70.68
2022-11-09T09:44:51.942Z,68.65
2022-11-09T09:48:00.284Z,66.53
2022-11-09T09:51:07.782Z,67.21
2022-11-09T09:54:17.450Z,66.58
2022-11-09T09:57:23.088Z,66.98
2022-11-09T10:00:29.000Z,67.19
2022-11-09T10:03:32.289Z,67.74
2022-11-09T10:06:44.194Z,66.97
2022-11-09T10:10:10.992Z,66.38
2022-11-09T10:13:30.977Z,66.93
2022-11-09T10:16:43.847Z,67.83
2022-11-09T10:20:01.120Z,64.40
2022-11-09T10:23:24.508Z,64.86
2022-11-09T10:26:34.383Z,66.20
2022-11-09T10:29:42.742Z,66.37
2022-11-09T10:32:51.577Z,65.76
2022-11-09T10:36:06.856Z,64.20
2022-11-09T10:39:14.777Z,65.22
2022-11-09T10:42:17.470Z,62.66
2022-11-09T10:45:29.268Z,60.45
2022-11-09T10:48:36.539Z,59.32
2022-11-09T10:51:42.361Z,58.83
2022-11-09T10:54:44.984Z,57.76
2022-11-09T10:58:00.325Z,57.81
2022-11-09T11:01:06.074Z,58.90
2022-11-09T11:04:23.266Z,58.91
2022-11-09T11:07:26.393Z,58.35
2022-11-09T11:10:29.144Z,61.63
2022-11-09T11:13:31.769Z,61.57
2022-11-09T11:16:35.957Z,62.27
2022-11-09T11:19:41.551Z,61.99
2022-11-09T11:22:44.235Z,62.64
2022-11-09T11:26:00.730Z,60.92
2022-11-09T11:29:14.076Z,61.54
2022-11-09T11:32:21.269Z,60.80
2022-11-09T11:35:35.374Z,62.12
2022-11-09T11:38:42.460Z,61.20
2022-11-09T11:42:15.866Z,60.88
2022-11-09T11:45:41.580Z,60.82
2022-11-09T11:49:10.023Z,58.72
2022-11-09T11:52:19.644Z,57.06
2022-11-09T11:55:40.780Z,59.02
2022-11-09T11:58:56.699Z,58.88
2022-11-09T12:02:23.031Z,57.60
2022-11-09T12:05:56.260Z,58.65
2022-11-09T12:09:22.786Z,58.73
2022-11-09T12:12:36.408Z,59.95
2022-11-09T12:15:51.878Z,59.93
2022-11-09T12:19:23.876Z,59.00
2022-11-09T12:22:40.534Z,60.22
2022-11-09T12:25:50.032Z,61.04
2022-11-09T12:29:08.861Z,60.10
2022-11-09T12:32:22.357Z,60.88
2022-11-09T12:35:33.251Z,60.23
2022-11-09T12:38:42.414Z,59.79
2022-11-09T12:41:49.980Z,58.81
2022-11-09T12:45:02.898Z,59.87
2022-11-09T12:48:16.368Z,58.96
2022-11-09T12:51:20.813Z,59.70
2022-11-09T12:54:25.106Z,59.53
2022-11-09T12:57:31.206Z,59.86
2022-11-09T13:00:51.871Z,59.90
2022-11-09T13:03:57.563Z,60.44
2022-11-09T13:07:49.527Z,59.70
2022-11-09T13:11:10.152Z,60.76
2022-11-09T13:14:39.412Z,60.97
2022-11-09T13:17:56.955Z,61.01
2022-11-09T13:21:35.058Z,61.01
2022-11-09T13:24:57.120Z,61.23
2022-11-09T13:28:00.024Z,60.87
2022-11-09T13:31:04.900Z,61.37
2022-11-09T13:34:46.059Z,61.29
2022-11-09T13:37:56.047Z,61.68
2022-11-09T13:40:59.767Z,61.33
2022-11-09T13:44:16.186Z,62.18
2022-11-09T13:47:25.022Z,61.91
2022-11-09T13:50:30.053Z,61.78
2022-11-09T13:53:52.767Z,62.14
2022-11-09T13:56:56.308Z,62.21
2022-11-09T14:00:00.902Z,63.12
2022-11-09T14:03:17.025Z,63.34
2022-11-09T14:06:20.513Z,63.78
2022-11-09T14:09:23.270Z,63.78
2022-11-09T14:12:42.078Z,63.99
2022-11-09T14:15:53.279Z,63.47
2022-11-09T14:19:17.808Z,64.23
2022-11-09T14:22:21.284Z,64.48
2022-11-09T14:25:25.885Z,65.52
2022-11-09T14:28:30.444Z,64.86
2022-11-09T14:31:33.290Z,64.98
2022-11-09T14:34:37.519Z,64.42
2022-11-09T14:37:45.745Z,65.44
2022-11-09T14:40:50.001Z,65.49
2022-11-09T14:43:54.663Z,66.17
2022-11-09T14:46:58.199Z,66.17
2022-11-09T14:50:02.660Z,66.12
2022-11-09T14:53:06.033Z,66.23
2022-11-09T14:56:12.747Z,66.59
2022-11-09T14:59:17.391Z,66.33
2022-11-09T15:02:22.268Z,67.33
2022-11-09T15:05:40.032Z,66.95
2022-11-09T15:08:51.699Z,67.63
2022-11-09T15:11:55.071Z,67.59
2022-11-09T15:15:01.509Z,67.76
2022-11-09T15:18:04.547Z,68.03
2022-11-09T15:21:21.769Z,67.83
2022-11-09T15:24:26.765Z,68.08
2022-11-09T15:27:32.117Z,68.08
2022-11-09T15:30:39.853Z,68.99
2022-11-09T15:33:49.788Z,68.73
2022-11-09T15:36:56.399Z,68.85
2022-11-09T15:40:00.193Z,69.57
2022-11-09T15:43:03.087Z,69.47
2022-11-09T15:46:06.737Z,69.28
2022-11-09T15:49:19.079Z,69.51
2022-11-09T15:52:23.254Z,69.69
2022-11-09T15:55:26.592Z,69.75
2022-11-09T15:58:29.440Z,70.76
2022-11-09T16:01:32.947Z,71.41
2022-11-09T16:04:35.791Z,71.56
2022-11-09T16:07:48.257Z,70.97
2022-11-09T16:10:50.968Z,70.57
2022-11-09T16:13:53.653Z,71.39
2022-11-09T16:16:56.363Z,71.62
2022-11-09T16:19:59.022Z,71.72
2022-11-09T16:23:03.239Z,71.67
2022-11-09T16:26:09.205Z,72.24
2022-11-09T16:29:12.046Z,71.55
2022-11-09T16:32:14.709Z,71.46
2022-11-09T16:35:32.996Z,71.66
2022-11-09T16:38:40.031Z,71.78
2022-11-09T16:41:43.919Z,72.19
2022-11-09T16:44:49.188Z,72.09
2022-11-09T16:47:57.034Z,72.25
2022-11-09T16:50:59.901Z,72.16
2022-11-09T16:54:04.114Z,73.65
2022-11-09T16:57:06.797Z,73.42
2022-11-09T17:00:10.673Z,74.24
2022-11-09T17:03:14.136Z,74.26
2022-11-09T17:06:17.023Z,73.21
2022-11-09T17:09:21.708Z,74.46
2022-11-09T17:12:24.800Z,74.60
2022-11-09T17:15:27.900Z,74.71
2022-11-09T17:18:30.588Z,74.96
2022-11-09T17:21:33.300Z,75.22
2022-11-09T17:24:37.337Z,74.89
2022-11-09T17:27:40.185Z,75.85
2022-11-09T17:30:42.926Z,75.51
2022-11-09T17:33:45.901Z,75.32
2022-11-09T17:37:03.651Z,75.75
2022-11-09T17:40:09.798Z,75.90
2022-11-09T17:43:12.609Z,75.92
2022-11-09T17:46:16.933Z,75.49
2022-11-09T17:49:19.750Z,76.43
2022-11-09T17:52:22.420Z,76.62
2022-11-09T17:55:26.601Z,76.19
2022-11-09T17:58:30.155Z,76.58
2022-11-09T18:01:39.520Z,76.60
2022-11-09T18:04:43.782Z,76.24
2022-11-09T18:07:46.443Z,76.46
2022-11-09T18:10:51.152Z,76.76
2022-11-09T18:13:54.314Z,75.10
2022-11-09T18:16:59.618Z,73.66
2022-11-09T18:20:02.462Z,73.03
2022-11-09T18:23:05.123Z,73.06
2022-11-09T18:26:10.159Z,72.40
2022-11-09T18:29:13.061Z,72.21
2022-11-09T18:32:15.799Z,71.39
2022-11-09T18:35:18.630Z,71.45
2022-11-09T18:38:24.322Z,71.28
2022-11-09T18:41:30.801Z,71.37
2022-11-09T18:44:33.667Z,71.83
2022-11-09T18:47:36.528Z,73.50
2022-11-09T18:50:39.665Z,72.89
2022-11-09T18:53:44.517Z,73.08
2022-11-09T18:56:49.044Z,72.41
2022-11-09T18:59:51.761Z,72.65
2022-11-09T19:02:54.498Z,72.60
2022-11-09T19:05:57.440Z,72.65
2022-11-09T19:09:17.763Z,73.48
2022-11-09T19:12:22.046Z,73.75
2022-11-09T19:15:24.774Z,73.96
2022-11-09T19:18:27.641Z,71.86
2022-11-09T19:21:37.990Z,72.40
2022-11-09T19:24:40.874Z,72.89
2022-11-09T19:27:44.947Z,73.40
2022-11-09T19:30:47.615Z,73.56
2022-11-09T19:33:50.283Z,73.82
2022-11-09T19:36:52.987Z,74.04
2022-11-09T19:39:55.739Z,73.88
2022-11-09T19:42:59.792Z,73.94
2022-11-09T19:46:05.188Z,74.53
2022-11-09T19:49:09.241Z,74.27
2022-11-09T19:52:12.695Z,74.51
2022-11-09T19:55:15.642Z,74.63
2022-11-09T19:58:19.976Z,75.32
2022-11-09T20:01:23.582Z,74.70
2022-11-09T20:04:26.364Z,74.63
2022-11-09T20:07:29.587Z,74.79
2022-11-09T20:10:32.452Z,74.49
2022-11-09T20:13:39.074Z,74.99
2022-11-09T20:16:44.391Z,75.26
2022-11-09T20:19:47.102Z,75.26
2022-11-09T20:22:50.013Z,75.39
2022-11-09T20:25:52.839Z,75.40
2022-11-09T20:28:56.972Z,76.15
2022-11-09T20:31:59.796Z,75.79
2022-11-09T20:35:02.691Z,75.66
2022-11-09T20:38:05.521Z,76.18
2022-11-09T20:41:11.346Z,76.40
2022-11-09T20:44:15.591Z,76.48
2022-11-09T20:47:30.292Z,76.62
2022-11-09T20:50:40.925Z,76.62
2022-11-09T20:53:44.174Z,76.71
2022-11-09T20:56:46.969Z,76.39
2022-11-09T20:59:51.215Z,76.88
2022-11-09T21:02:53.952Z,76.12
2022-11-09T21:05:59.096Z,76.45
2022-11-09T21:09:04.320Z,75.84
2022-11-09T21:12:22.460Z,76.10
2022-11-09T21:15:26.574Z,75.97
2022-11-09T21:18:29.244Z,76.35
2022-11-09T21:21:36.210Z,77.19
2022-11-09T21:24:57.098Z,76.09
2022-11-09T21:28:20.027Z,76.51
2022-11-09T21:31:24.413Z,76.43
2022-11-09T21:34:29.506Z,77.06
2022-11-09T21:37:35.636Z,77.09
2022-11-09T21:40:38.353Z,77.16
2022-11-09T21:43:41.162Z,76.88
2022-11-09T21:46:46.252Z,76.81
2022-11-09T21:49:49.040Z,76.76
2022-11-09T21:52:51.878Z,76.83
2022-11-09T21:55:54.599Z,76.97
2022-11-09T21:58:57.703Z,77.48
2022-11-09T22:02:01.766Z,76.46
2022-11-09T22:05:05.003Z,76.92
2022-11-09T22:08:08.007Z,76.62
2022-11-09T22:11:13.270Z,75.99
2022-11-09T22:14:35.973Z,76.85
2022-11-09T22:17:40.174Z,76.11
2022-11-09T22:20:56.978Z,75.50
2022-11-09T22:24:00.494Z,75.92
2022-11-09T22:27:03.335Z,75.84
2022-11-09T22:30:07.332Z,76.23
2022-11-09T22:33:11.614Z,76.06
2022-11-09T22:36:15.313Z,75.38
2022-11-09T22:39:18.211Z,75.53
2022-11-09T22:42:21.042Z,75.81
2022-11-09T22:45:23.927Z,76.08
2022-11-09T22:48:28.344Z,76.42
2022-11-09T22:51:31.372Z,75.69
2022-11-09T22:54:34.230Z,76.03
2022-11-09T22:57:37.872Z,75.56
2022-11-09T23:00:41.770Z,73.64
2022-11-09T23:03:45.867Z,74.54
2022-11-09T23:06:48.892Z,74.44
2022-11-09T23:09:51.765Z,72.20
2022-11-09T23:12:54.424Z,72.65
2022-11-09T23:15:58.528Z,72.37
2022-11-09T23:19:02.610Z,71.30
2022-11-09T23:22:05.501Z,71.37
2022-11-09T23:25:26.712Z,71.55
2022-11-09T23:28:29.564Z,70.42
2022-11-09T23:31:32.402Z,70.92
2022-11-09T23:34:36.446Z,70.09
2022-11-09T23:37:39.817Z,70.42
2022-11-09T23:40:42.531Z,70.15
2022-11-09T23:43:49.249Z,69.50
2022-11-09T23:46:52.443Z,70.33
2022-11-09T23:49:56.711Z,69.17
2022-11-09T23:53:02.875Z,69.65
2022-11-09T23:56:07.975Z,69.18
2022-11-09T23:59:10.671Z,68.57
